Time;durP1;ratioP1;P1;durP2;ratioP2;P2;SDS_P1;SDS_P2;PMS_P1;PMS_P2;Temp;Humidity;BMP_temperature;BMP_pressure;BME280_temperature;BME280_humidity;BME280_pressure;Samples;Min_cycle;Max_cycle;Signal;HPM_P1;HPM_P2
2023/06/13 00:01:24;;;;;;;3.58;1.88;;;19.80;62.30;;;;;;5010708;28;20022;-72
2023/06/13 00:03:51;;;;;;;3.58;2.42;;;19.80;62.40;;;;;;5029812;28;20025;-72
2023/06/13 00:06:17;;;;;;;7.20;3.00;;;19.70;62.60;;;;;;5027416;28;20461;-72
2023/06/13 00:08:43;;;;;;;7.45;2.80;;;19.70;62.90;;;;;;5030245;28;20444;-72
2023/06/13 00:11:09;;;;;;;6.15;2.60;;;19.70;63.00;;;;;;5008645;28;20049;-71
2023/06/13 00:13:35;;;;;;;4.72;2.00;;;19.60;63.00;;;;;;5029881;28;20056;-72
2023/06/13 00:16:00;;;;;;;4.22;2.70;;;19.60;62.90;;;;;;5028469;28;20033;-72
2023/06/13 00:18:30;;;;;;;9.23;2.90;;;19.60;63.00;;;;;;5027266;28;20489;-72
2023/06/13 00:20:58;;;;;;;7.22;2.53;;;19.50;63.00;;;;;;5026456;28;20042;-71
2023/06/13 00:23:24;;;;;;;4.75;2.22;;;19.50;63.00;;;;;;5028922;28;20026;-71
2023/06/13 00:25:50;;;;;;;5.38;2.40;;;19.50;63.10;;;;;;5028177;28;20064;-72
2023/06/13 00:28:15;;;;;;;3.15;2.10;;;19.40;63.00;;;;;;5029414;28;20033;-72
2023/06/13 00:30:41;;;;;;;7.88;2.88;;;19.40;63.50;;;;;;5026683;28;20033;-71
2023/06/13 00:33:07;;;;;;;5.07;2.33;;;19.30;63.70;;;;;;5028838;28;20029;-71
2023/06/13 00:35:32;;;;;;;5.95;2.60;;;19.30;64.60;;;;;;5032846;28;20508;-72
2023/06/13 00:37:58;;;;;;;4.75;2.45;;;19.20;65.10;;;;;;5032667;28;20116;-71
2023/06/13 00:40:24;;;;;;;4.40;2.70;;;19.10;65.70;;;;;;5031253;28;20071;-71
2023/06/13 00:42:52;;;;;;;5.32;2.35;;;19.00;66.20;;;;;;5033238;28;20033;-71
2023/06/13 00:45:26;;;;;;;4.70;3.00;;;18.90;66.40;;;;;;5031384;28;20144;-71
2023/06/13 00:48:09;;;;;;;6.55;2.83;;;18.80;66.50;;;;;;5033031;28;20513;-72
2023/06/13 00:50:40;;;;;;;5.82;2.88;;;18.70;67.10;;;;;;5012095;28;20034;-71
2023/06/13 00:53:16;;;;;;;3.97;2.78;;;18.60;67.00;;;;;;5032602;28;20096;-71
2023/06/13 00:55:42;;;;;;;5.43;3.28;;;18.50;67.40;;;;;;5032414;28;20029;-71
2023/06/13 00:58:10;;;;;;;5.15;2.80;;;18.40;67.80;;;;;;5032833;28;20025;-72
2023/06/13 01:00:37;;;;;;;4.75;2.40;;;18.40;67.80;;;;;;5026701;28;20044;-71
2023/06/13 01:03:07;;;;;;;7.68;3.35;;;18.30;68.00;;;;;;5030464;28;20026;-72
2023/06/13 01:05:34;;;;;;;4.50;2.50;;;18.30;68.30;;;;;;5030496;28;20017;-72
2023/06/13 01:08:01;;;;;;;5.20;2.47;;;18.30;68.50;;;;;;5031816;28;20116;-71
2023/06/13 01:10:29;;;;;;;6.10;2.75;;;18.20;68.70;;;;;;5029801;28;20052;-72
2023/06/13 01:13:11;;;;;;;8.88;2.97;;;18.10;69.00;;;;;;5031815;28;20512;-71
2023/06/13 01:15:44;;;;;;;8.00;2.60;;;18.10;68.80;;;;;;5032254;28;20030;-72
2023/06/13 01:18:12;;;;;;;5.00;2.92;;;18.00;68.70;;;;;;5031215;28;20033;-72
2023/06/13 01:20:38;;;;;;;4.15;2.75;;;18.00;68.70;;;;;;5030113;28;20046;-71
2023/06/13 01:23:25;;;;;;;3.85;2.60;;;18.00;68.90;;;;;;5030541;28;20032;-71
2023/06/13 01:26:26;;;;;;;6.07;3.10;;;17.90;69.20;;;;;;5025935;28;20397;-71
2023/06/13 01:28:52;;;;;;;4.28;2.42;;;17.80;69.10;;;;;;5027533;28;20032;-71
2023/06/13 01:31:22;;;;;;;4.60;2.97;;;17.70;69.10;;;;;;5023978;28;20021;-71
2023/06/13 01:33:48;;;;;;;5.03;3.20;;;17.70;69.50;;;;;;5033259;28;20485;-71
2023/06/13 01:36:14;;;;;;;8.98;2.72;;;17.60;70.10;;;;;;5029956;28;20061;-72
2023/06/13 01:38:40;;;;;;;7.50;2.47;;;17.60;70.90;;;;;;5030405;28;20547;-71
2023/06/13 01:41:06;;;;;;;5.43;3.15;;;17.50;71.30;;;;;;5026095;28;20037;-71
2023/06/13 01:43:31;;;;;;;7.85;3.10;;;17.40;71.50;;;;;;5025191;28;20052;-71
2023/06/13 01:46:05;;;;;;;5.93;2.75;;;17.30;71.80;;;;;;5032103;28;20065;-71
2023/06/13 01:48:47;;;;;;;5.38;2.40;;;17.20;72.20;;;;;;5030468;28;20428;-71
2023/06/13 01:51:30;;;;;;;5.78;2.95;;;17.10;72.60;;;;;;5014794;28;20033;-71
2023/06/13 01:54:00;;;;;;;6.57;3.42;;;17.10;73.00;;;;;;5028616;28;20041;-71
2023/06/13 01:56:31;;;;;;;8.85;3.17;;;17.00;73.30;;;;;;5026916;28;20428;-72
2023/06/13 01:59:00;;;;;;;4.38;2.92;;;16.90;73.60;;;;;;5012677;28;20029;-72
2023/06/13 02:01:28;;;;;;;7.10;2.90;;;16.90;74.60;;;;;;5029020;28;20112;-71
2023/06/13 02:03:54;;;;;;;7.45;3.50;;;16.80;74.70;;;;;;5017429;28;20029;-71
2023/06/13 02:06:20;;;;;;;5.43;3.78;;;16.80;74.30;;;;;;5031681;28;20373;-73
2023/06/13 02:08:46;;;;;;;6.95;3.25;;;16.70;74.50;;;;;;5032175;28;20081;-71
2023/06/13 02:11:12;;;;;;;6.03;3.17;;;16.70;74.70;;;;;;5025183;28;20077;-72
2023/06/13 02:13:39;;;;;;;6.85;3.70;;;16.60;75.00;;;;;;5030409;28;20032;-72
2023/06/13 02:16:05;;;;;;;4.68;3.03;;;16.70;75.10;;;;;;5030564;28;20033;-71
2023/06/13 02:18:31;;;;;;;8.13;3.00;;;16.70;75.20;;;;;;5031120;28;20487;-71
2023/06/13 02:20:57;;;;;;;5.55;3.20;;;16.70;75.50;;;;;;5026426;28;20053;-72
2023/06/13 02:23:23;;;;;;;4.70;2.67;;;16.60;75.70;;;;;;5029985;28;20120;-71
2023/06/13 02:25:49;;;;;;;11.45;3.25;;;16.50;76.00;;;;;;5031235;28;20083;-71
2023/06/13 02:28:14;;;;;;;7.38;2.80;;;16.50;76.30;;;;;;5025881;28;20428;-71
2023/06/13 02:30:40;;;;;;;6.18;3.65;;;16.40;76.50;;;;;;5028824;28;20051;-71
2023/06/13 02:33:08;;;;;;;9.23;4.03;;;16.30;76.70;;;;;;5027953;28;20144;-71
2023/06/13 02:35:33;;;;;;;5.63;3.20;;;16.30;77.00;;;;;;5020806;28;20037;-71
2023/06/13 02:37:59;;;;;;;4.60;3.15;;;16.30;77.20;;;;;;5024709;28;20030;-71
2023/06/13 02:40:25;;;;;;;7.25;3.58;;;16.30;77.30;;;;;;5027510;28;20022;-71
2023/06/13 02:42:53;;;;;;;8.05;3.90;;;16.20;77.50;;;;;;5029360;28;20384;-71
2023/06/13 02:45:19;;;;;;;6.35;3.80;;;16.20;77.60;;;;;;5027901;28;20056;-71
2023/06/13 02:47:45;;;;;;;6.57;3.50;;;16.20;77.80;;;;;;5029201;28;20045;-71
2023/06/13 02:50:10;;;;;;;6.10;3.67;;;16.20;78.00;;;;;;5030457;28;20069;-71
2023/06/13 02:52:37;;;;;;;8.45;3.65;;;16.10;78.10;;;;;;5029343;28;20462;-71
2023/06/13 02:55:04;;;;;;;6.95;3.17;;;16.10;78.40;;;;;;5017856;28;20437;-71
2023/06/13 02:57:30;;;;;;;8.20;4.15;;;16.10;78.60;;;;;;5029278;28;20032;-71
2023/06/13 02:59:56;;;;;;;8.50;3.13;;;16.10;78.90;;;;;;5030081;28;20029;-71
2023/06/13 03:02:25;;;;;;;6.25;3.47;;;16.00;79.00;;;;;;5030258;28;20108;-71
2023/06/13 03:04:51;;;;;;;5.95;3.53;;;16.00;79.40;;;;;;5028595;28;20485;-71
2023/06/13 03:07:17;;;;;;;6.80;3.40;;;16.00;79.60;;;;;;5027792;28;20108;-71
2023/06/13 03:09:43;;;;;;;7.63;4.57;;;16.00;79.70;;;;;;5031741;28;20426;-71
2023/06/13 03:12:10;;;;;;;4.72;3.33;;;15.90;79.90;;;;;;5029273;28;20028;-71
2023/06/13 03:14:36;;;;;;;7.55;3.85;;;15.90;79.80;;;;;;5030859;28;20039;-71
2023/06/13 03:17:04;;;;;;;7.60;3.63;;;15.90;80.10;;;;;;5029067;28;20465;-71
2023/06/13 03:19:30;;;;;;;5.15;3.97;;;15.90;80.20;;;;;;5029330;28;20050;-72
2023/06/13 03:21:56;;;;;;;6.63;3.58;;;15.90;80.30;;;;;;5027458;28;20120;-72
2023/06/13 03:24:22;;;;;;;4.95;3.40;;;15.90;80.40;;;;;;5029779;28;20037;-71
2023/06/13 03:26:47;;;;;;;8.07;4.35;;;15.90;80.60;;;;;;5030259;28;20029;-71
2023/06/13 03:29:13;;;;;;;5.05;3.33;;;15.90;80.90;;;;;;5029438;28;20037;-71
2023/06/13 03:31:38;;;;;;;5.80;3.42;;;15.80;81.00;;;;;;5029477;28;20374;-71
2023/06/13 03:34:05;;;;;;;6.43;3.70;;;15.80;81.10;;;;;;5030308;28;20436;-71
2023/06/13 03:36:34;;;;;;;8.75;4.15;;;15.90;81.40;;;;;;5027699;28;20041;-71
2023/06/13 03:39:00;;;;;;;6.20;3.78;;;15.80;81.60;;;;;;5029568;28;20022;-72
2023/06/13 03:41:25;;;;;;;10.82;5.03;;;15.90;81.60;;;;;;5028847;28;20036;-71
2023/06/13 03:43:51;;;;;;;6.78;3.65;;;15.90;81.80;;;;;;5029031;28;20037;-72
2023/06/13 03:46:17;;;;;;;7.60;3.45;;;15.80;81.80;;;;;;5028810;28;20459;-72
2023/06/13 03:48:42;;;;;;;6.82;3.47;;;15.90;82.00;;;;;;5028999;28;20025;-72
2023/06/13 03:51:08;;;;;;;9.02;4.13;;;15.90;82.10;;;;;;5023737;28;20037;-71
2023/06/13 03:53:33;;;;;;;7.78;3.88;;;15.90;82.10;;;;;;5023144;28;20032;-72
2023/06/13 03:56:00;;;;;;;7.25;4.45;;;15.90;82.20;;;;;;5025482;28;20033;-71
2023/06/13 03:58:26;;;;;;;6.38;4.20;;;15.90;82.20;;;;;;5027482;28;20021;-70
2023/06/13 04:00:54;;;;;;;8.02;4.53;;;16.00;82.20;;;;;;5019699;28;20496;-70
2023/06/13 04:03:20;;;;;;;7.07;3.97;;;16.00;82.20;;;;;;5028269;28;20037;-71
2023/06/13 04:05:45;;;;;;;6.88;3.88;;;16.00;82.10;;;;;;5020664;28;20033;-71
2023/06/13 04:08:11;;;;;;;7.97;3.83;;;16.00;82.00;;;;;;5032236;28;20596;-70
2023/06/13 04:10:37;;;;;;;6.60;3.53;;;16.10;82.00;;;;;;5029333;28;20073;-71
2023/06/13 04:13:02;;;;;;;5.22;3.25;;;16.10;81.90;;;;;;5024406;28;20497;-71
2023/06/13 04:15:28;;;;;;;7.13;3.75;;;16.10;81.90;;;;;;5026940;28;20124;-71
2023/06/13 04:17:54;;;;;;;7.88;3.65;;;16.20;81.90;;;;;;5033324;28;20030;-71
2023/06/13 04:20:21;;;;;;;7.40;3.55;;;16.20;82.00;;;;;;5031043;28;20047;-71
2023/06/13 04:22:47;;;;;;;7.00;4.50;;;16.20;81.90;;;;;;5030507;28;20551;-70
2023/06/13 04:25:13;;;;;;;9.25;4.60;;;16.20;81.90;;;;;;5032776;28;20033;-70
2023/06/13 04:27:38;;;;;;;5.50;3.85;;;16.30;81.90;;;;;;5011265;28;20512;-70
2023/06/13 04:30:06;;;;;;;7.25;3.88;;;16.40;81.80;;;;;;5026790;28;20049;-70
2023/06/13 04:32:33;;;;;;;5.22;3.75;;;16.40;81.80;;;;;;5032077;28;20030;-70
2023/06/13 04:34:58;;;;;;;7.10;3.38;;;16.40;81.90;;;;;;5028850;28;20061;-70
2023/06/13 04:37:25;;;;;;;7.55;3.78;;;16.50;81.80;;;;;;5033036;28;20420;-70
2023/06/13 04:39:54;;;;;;;6.60;4.25;;;16.50;81.70;;;;;;5026170;28;20473;-70
2023/06/13 04:42:24;;;;;;;5.97;3.63;;;16.60;81.70;;;;;;5032175;28;20045;-70
2023/06/13 04:44:52;;;;;;;8.13;3.97;;;16.60;81.50;;;;;;5033574;28;20026;-70
2023/06/13 04:47:18;;;;;;;10.30;3.85;;;16.70;81.60;;;;;;5025446;28;20026;-70
2023/06/13 04:49:45;;;;;;;4.75;3.60;;;16.70;81.50;;;;;;5030011;28;20397;-70
2023/06/13 04:52:14;;;;;;;5.57;3.88;;;16.80;81.40;;;;;;5031758;28;20165;-70
2023/06/13 04:54:40;;;;;;;9.15;3.40;;;17.00;81.60;;;;;;5033865;28;20201;-70
2023/06/13 04:57:06;;;;;;;5.25;3.22;;;17.30;81.40;;;;;;5033555;28;20028;-70
2023/06/13 04:59:31;;;;;;;5.05;3.65;;;17.70;80.70;;;;;;5033839;28;20112;-70
2023/06/13 05:01:57;;;;;;;5.90;3.90;;;18.10;79.70;;;;;;5030231;28;20541;-70
2023/06/13 05:04:22;;;;;;;5.30;3.47;;;18.50;78.80;;;;;;5032390;28;20397;-70
2023/06/13 05:06:49;;;;;;;6.13;3.47;;;18.80;77.10;;;;;;5032599;28;20075;-70
2023/06/13 05:09:16;;;;;;;5.18;3.60;;;19.20;76.50;;;;;;5031444;28;20026;-70
2023/06/13 05:11:42;;;;;;;9.60;3.40;;;19.40;75.40;;;;;;5027492;28;20075;-70
2023/06/13 05:14:07;;;;;;;7.85;3.63;;;19.70;74.60;;;;;;5032346;28;20025;-70
2023/06/13 05:16:34;;;;;;;4.28;2.95;;;20.00;73.50;;;;;;5030794;28;20048;-70
2023/06/13 05:19:00;;;;;;;4.70;3.15;;;20.20;72.50;;;;;;5032975;28;20040;-70
2023/06/13 05:21:31;;;;;;;5.57;3.60;;;20.40;71.60;;;;;;5025796;28;20052;-70
2023/06/13 05:23:58;;;;;;;6.97;3.65;;;20.60;70.70;;;;;;5033730;28;20401;-70
2023/06/13 05:26:24;;;;;;;8.05;3.60;;;20.90;70.10;;;;;;5032077;28;20045;-70
2023/06/13 05:28:50;;;;;;;10.02;3.30;;;21.10;69.70;;;;;;5032753;28;20028;-71
2023/06/13 05:31:15;;;;;;;5.85;3.33;;;21.30;69.40;;;;;;5030920;28;20042;-72
2023/06/13 05:33:41;;;;;;;10.18;3.42;;;21.50;68.60;;;;;;5033652;28;20026;-71
2023/06/13 05:36:07;;;;;;;7.05;3.55;;;21.60;68.10;;;;;;5000110;28;20052;-71
2023/06/13 05:38:32;;;;;;;7.28;3.53;;;21.80;67.90;;;;;;5031605;28;20087;-72
2023/06/13 05:40:58;;;;;;;7.18;3.50;;;21.90;67.20;;;;;;5033483;28;20083;-71
2023/06/13 05:43:23;;;;;;;7.10;3.78;;;21.90;66.90;;;;;;5031938;28;20030;-72
2023/06/13 05:45:49;;;;;;;7.57;3.42;;;22.00;66.40;;;;;;5032885;28;20040;-71
2023/06/13 05:48:15;;;;;;;6.65;3.90;;;22.00;65.90;;;;;;5026542;28;20516;-71
2023/06/13 05:50:41;;;;;;;6.80;4.05;;;22.10;65.50;;;;;;5032739;28;20033;-72
2023/06/13 05:53:06;;;;;;;7.63;3.92;;;22.10;64.60;;;;;;5029940;28;20029;-71
2023/06/13 05:55:32;;;;;;;4.85;3.00;;;22.00;64.20;;;;;;5030237;28;20025;-71
2023/06/13 05:57:57;;;;;;;8.23;4.18;;;21.80;63.80;;;;;;5027132;28;20394;-71
2023/06/13 06:00:23;;;;;;;8.63;4.03;;;21.70;64.00;;;;;;5016669;28;20465;-71
2023/06/13 06:02:49;;;;;;;5.75;3.75;;;21.60;64.70;;;;;;5013048;28;20055;-70
2023/06/13 06:05:15;;;;;;;11.63;4.47;;;21.50;65.30;;;;;;5029878;28;20029;-72
2023/06/13 06:07:42;;;;;;;9.73;3.95;;;21.50;64.60;;;;;;5032773;28;20481;-72
2023/06/13 06:10:08;;;;;;;7.30;3.13;;;21.50;64.60;;;;;;5029357;28;20175;-72
2023/06/13 06:12:34;;;;;;;7.97;3.42;;;21.50;64.70;;;;;;5022534;28;20021;-72
2023/06/13 06:15:01;;;;;;;10.15;4.10;;;21.60;64.40;;;;;;5030274;28;20084;-72
2023/06/13 06:17:26;;;;;;;9.20;3.88;;;21.60;64.40;;;;;;5017079;28;20025;-72
2023/06/13 06:19:52;;;;;;;7.13;3.38;;;21.70;64.40;;;;;;5025414;28;20139;-71
2023/06/13 06:22:17;;;;;;;7.70;3.40;;;21.80;64.50;;;;;;5031094;28;20013;-72
2023/06/13 06:24:43;;;;;;;6.60;3.42;;;21.90;65.40;;;;;;5030314;28;20026;-72
2023/06/13 06:27:11;;;;;;;9.38;3.35;;;21.90;63.90;;;;;;5031209;28;20044;-72
2023/06/13 06:29:37;;;;;;;6.47;3.15;;;22.00;63.50;;;;;;5032398;28;20539;-71
2023/06/13 06:32:07;;;;;;;5.65;3.45;;;22.00;63.60;;;;;;5027071;28;20073;-71
2023/06/13 06:34:33;;;;;;;7.18;2.85;;;22.00;63.20;;;;;;5023083;28;20029;-71
2023/06/13 06:36:59;;;;;;;4.85;3.63;;;22.10;63.60;;;;;;5030713;28;20029;-72
2023/06/13 06:39:24;;;;;;;5.53;2.78;;;22.20;63.20;;;;;;5030550;28;20116;-72
2023/06/13 06:41:50;;;;;;;7.15;3.38;;;22.20;63.10;;;;;;5031668;28;20029;-72
2023/06/13 06:44:15;;;;;;;6.57;3.47;;;22.20;63.30;;;;;;5022996;28;20026;-72
2023/06/13 06:46:41;;;;;;;5.32;3.17;;;22.20;63.20;;;;;;5032365;28;20074;-72
2023/06/13 06:49:07;;;;;;;8.50;3.08;;;22.30;62.90;;;;;;5031340;28;20103;-71
2023/06/13 06:51:33;;;;;;;4.78;2.53;;;22.30;62.70;;;;;;5023473;28;20017;-71
2023/06/13 06:53:59;;;;;;;7.07;3.33;;;22.30;62.70;;;;;;5028422;28;20026;-72
2023/06/13 06:56:25;;;;;;;6.18;2.85;;;22.30;62.50;;;;;;5032171;28;20018;-72
2023/06/13 06:58:51;;;;;;;4.47;2.90;;;22.40;62.90;;;;;;5031834;28;20022;-72
2023/06/13 07:01:18;;;;;;;5.43;3.05;;;22.40;63.40;;;;;;5030354;28;20037;-72
2023/06/13 07:03:44;;;;;;;7.40;3.20;;;22.50;63.00;;;;;;5032457;28;20382;-72
2023/06/13 07:06:11;;;;;;;9.52;3.85;;;22.60;63.10;;;;;;5030969;28;20026;-71
2023/06/13 07:08:37;;;;;;;6.72;2.97;;;22.70;62.80;;;;;;5013063;28;20555;-72
2023/06/13 07:11:02;;;;;;;4.28;2.55;;;22.80;63.20;;;;;;5020517;28;20046;-72
2023/06/13 07:13:28;;;;;;;5.88;2.97;;;22.80;62.60;;;;;;5012299;28;20026;-72
2023/06/13 07:15:53;;;;;;;4.35;2.30;;;22.90;62.50;;;;;;5012366;28;20486;-71
2023/06/13 07:18:19;;;;;;;4.72;3.10;;;23.00;62.50;;;;;;5015039;28;20116;-72
2023/06/13 07:20:45;;;;;;;7.07;2.92;;;23.00;62.20;;;;;;5031306;28;20104;-72
2023/06/13 07:23:12;;;;;;;5.43;2.47;;;23.20;61.80;;;;;;5031116;28;20032;-71
2023/06/13 07:25:40;;;;;;;4.97;3.10;;;23.20;61.50;;;;;;5029082;28;20021;-72
2023/06/13 07:28:07;;;;;;;6.15;2.97;;;23.30;60.70;;;;;;5022452;28;20449;-72
2023/06/13 07:30:32;;;;;;;3.47;2.45;;;23.30;60.60;;;;;;5013362;28;20056;-72
2023/06/13 07:32:58;;;;;;;3.88;2.35;;;23.30;60.10;;;;;;5011180;28;20026;-72
2023/06/13 07:35:23;;;;;;;5.47;2.88;;;23.40;59.80;;;;;;5019388;28;20024;-72
2023/06/13 07:37:55;;;;;;;4.97;2.40;;;23.40;59.70;;;;;;5029019;28;20040;-71
2023/06/13 07:40:21;;;;;;;7.75;2.75;;;23.50;59.90;;;;;;5028448;28;20021;-71
2023/06/13 07:42:51;;;;;;;4.88;2.28;;;23.50;59.70;;;;;;5018166;28;20072;-72
2023/06/13 07:45:17;;;;;;;4.95;2.30;;;23.60;60.70;;;;;;5000077;28;20037;-72
2023/06/13 07:47:43;;;;;;;4.05;2.67;;;23.80;60.50;;;;;;5025357;28;20030;-71
2023/06/13 07:50:09;;;;;;;4.88;2.25;;;23.80;59.60;;;;;;5028843;28;20033;-72
2023/06/13 07:52:34;;;;;;;6.05;3.42;;;23.90;59.70;;;;;;5028245;28;20025;-71
2023/06/13 07:55:00;;;;;;;5.97;2.78;;;24.00;59.80;;;;;;5014635;28;20038;-72
2023/06/13 07:57:26;;;;;;;6.15;2.78;;;24.10;58.50;;;;;;5031107;28;20386;-71
2023/06/13 07:59:53;;;;;;;6.43;2.92;;;24.10;57.70;;;;;;5018080;28;20025;-73
2023/06/13 08:02:19;;;;;;;6.85;2.75;;;24.00;58.00;;;;;;5020750;28;20037;-72
2023/06/13 08:04:45;;;;;;;4.95;2.67;;;24.10;59.10;;;;;;5015416;28;20021;-72
2023/06/13 08:07:11;;;;;;;4.43;2.80;;;24.30;58.20;;;;;;5029047;28;20049;-72
2023/06/13 08:09:36;;;;;;;8.88;3.28;;;24.30;57.20;;;;;;5025056;28;20048;-72
2023/06/13 08:12:02;;;;;;;4.03;2.33;;;24.40;57.30;;;;;;5024648;28;20104;-71
2023/06/13 08:14:27;;;;;;;6.45;2.88;;;24.50;57.60;;;;;;5026131;28;20026;-71
2023/06/13 08:16:53;;;;;;;3.28;2.28;;;24.60;57.50;;;;;;5033056;28;20030;-71
2023/06/13 08:19:18;;;;;;;4.78;2.70;;;24.60;57.00;;;;;;5005194;28;20072;-71
2023/06/13 08:21:46;;;;;;;7.00;3.08;;;24.60;56.90;;;;;;5031721;28;20053;-71
2023/06/13 08:24:13;;;;;;;5.03;2.28;;;24.70;56.50;;;;;;5030141;28;20485;-71
2023/06/13 08:26:39;;;;;;;7.57;2.63;;;24.70;56.50;;;;;;5032367;28;20076;-72
2023/06/13 08:29:05;;;;;;;8.52;2.67;;;24.80;56.10;;;;;;5030439;28;20026;-72
2023/06/13 08:31:32;;;;;;;7.03;3.20;;;24.90;55.90;;;;;;5031379;28;20374;-72
2023/06/13 08:33:58;;;;;;;4.97;2.80;;;24.90;56.10;;;;;;5033694;28;20477;-72
2023/06/13 08:36:25;;;;;;;4.82;2.63;;;24.90;55.20;;;;;;5030780;28;20037;-72
2023/06/13 08:38:52;;;;;;;5.25;2.53;;;24.90;55.30;;;;;;5031049;28;20501;-72
2023/06/13 08:41:18;;;;;;;5.88;2.65;;;25.00;55.50;;;;;;5031856;28;20033;-72
2023/06/13 08:43:45;;;;;;;3.75;2.15;;;25.20;55.40;;;;;;5030671;28;20426;-72
2023/06/13 08:46:11;;;;;;;4.00;2.60;;;25.30;55.10;;;;;;5031351;28;20455;-72
2023/06/13 08:48:37;;;;;;;3.42;2.25;;;25.40;54.60;;;;;;5010813;28;20061;-72
2023/06/13 08:51:05;;;;;;;4.20;3.03;;;25.50;54.50;;;;;;5029436;28;20069;-72
2023/06/13 08:53:36;;;;;;;4.97;2.67;;;25.50;54.30;;;;;;5032966;28;20102;-72
2023/06/13 08:56:06;;;;;;;4.13;2.28;;;25.50;54.70;;;;;;5038394;28;20112;-72
2023/06/13 08:58:38;;;;;;;6.55;2.30;;;25.60;54.50;;;;;;5035444;28;20049;-72
2023/06/13 09:01:05;;;;;;;;;;;25.70;54.40;;;;;;5034234;28;20520;-72
2023/06/13 09:03:31;;;;;;;3.17;1.77;;;25.70;55.00;;;;;;5033333;28;20007;-72
2023/06/13 09:05:58;;;;;;;5.13;2.08;;;25.70;53.60;;;;;;5032124;28;20104;-72
2023/06/13 09:08:25;;;;;;;6.32;2.60;;;25.70;53.80;;;;;;5031992;28;20485;-72
2023/06/13 09:10:51;;;;;;;4.90;2.70;;;25.70;53.50;;;;;;5032829;28;20048;-72
2023/06/13 09:13:18;;;;;;;3.50;2.33;;;25.80;53.50;;;;;;5032093;28;20022;-72
2023/06/13 09:15:44;;;;;;;6.32;2.80;;;25.90;53.70;;;;;;5029267;28;20578;-72
2023/06/13 09:18:14;;;;;;;4.50;2.20;;;26.00;53.30;;;;;;5030536;28;20030;-72
2023/06/13 09:20:40;;;;;;;4.20;2.13;;;26.10;53.00;;;;;;5033536;28;20042;-72
2023/06/13 09:23:06;;;;;;;5.20;2.28;;;26.20;52.30;;;;;;5033559;28;20508;-72
2023/06/13 09:25:35;;;;;;;5.22;2.38;;;26.20;52.20;;;;;;5033559;28;20021;-72
2023/06/13 09:28:27;;;;;;;6.68;2.30;;;26.30;51.60;;;;;;5032599;28;20025;-72
2023/06/13 09:30:52;;;;;;;4.95;2.42;;;26.20;51.10;;;;;;5033111;28;20497;-72
2023/06/13 09:33:21;;;;;;;3.67;2.03;;;26.20;51.30;;;;;;5032925;28;20037;-72
2023/06/13 09:35:47;;;;;;;3.40;1.92;;;26.30;51.90;;;;;;5032975;28;20037;-72
2023/06/13 09:38:14;;;;;;;6.60;2.22;;;26.50;51.80;;;;;;5032110;28;20382;-72
2023/06/13 09:40:46;;;;;;;2.95;2.25;;;26.60;51.40;;;;;;5033699;28;20029;-73
2023/06/13 09:43:13;;;;;;;5.93;2.08;;;26.80;51.00;;;;;;5032473;28;20036;-73
2023/06/13 09:45:39;;;;;;;3.40;2.25;;;26.80;51.20;;;;;;5022180;28;20038;-73
2023/06/13 09:48:05;;;;;;;4.75;2.55;;;26.80;50.30;;;;;;5033096;28;20355;-72
2023/06/13 09:50:31;;;;;;;8.80;2.38;;;26.80;50.20;;;;;;5015352;28;20095;-75
2023/06/13 09:52:58;;;;;;;3.13;1.90;;;27.00;50.60;;;;;;5033396;28;20408;-73
2023/06/13 09:55:23;;;;;;;3.85;1.90;;;27.10;50.10;;;;;;5033151;28;20052;-72
2023/06/13 09:57:52;;;;;;;4.40;1.98;;;27.00;48.90;;;;;;5032300;28;20029;-72
2023/06/13 10:00:18;;;;;;;3.67;1.83;;;27.00;49.10;;;;;;5028351;28;20385;-72
2023/06/13 10:02:44;;;;;;;3.75;2.10;;;27.00;49.70;;;;;;5028111;28;20474;-72
2023/06/13 10:05:12;;;;;;;7.13;2.13;;;27.10;49.20;;;;;;5013854;28;20033;-72
2023/06/13 10:07:37;;;;;;;7.30;2.00;;;27.20;48.50;;;;;;5033684;28;20079;-71
2023/06/13 10:10:03;;;;;;;3.17;2.10;;;27.30;48.30;;;;;;5013191;28;20025;-72
2023/06/13 10:12:31;;;;;;;3.33;2.20;;;27.40;48.50;;;;;;5034524;28;20029;-72
2023/06/13 10:15:00;;;;;;;4.75;2.03;;;27.30;47.40;;;;;;5032730;28;20038;-72
2023/06/13 10:17:31;;;;;;;3.65;1.90;;;27.30;48.00;;;;;;4995250;28;20025;-72
2023/06/13 10:20:05;;;;;;;6.15;2.22;;;27.40;49.00;;;;;;5032829;28;20136;-72
2023/06/13 10:22:31;;;;;;;5.93;1.95;;;27.50;47.70;;;;;;5035287;28;20362;-72
2023/06/13 10:24:57;;;;;;;3.78;1.90;;;27.50;47.90;;;;;;5038128;28;20052;-72
2023/06/13 10:27:24;;;;;;;5.20;2.13;;;27.60;46.80;;;;;;5030066;28;20037;-72
2023/06/13 10:30:00;;;;;;;4.05;1.70;;;27.50;46.40;;;;;;5023456;28;20038;-72
2023/06/13 10:33:02;;;;;;;4.53;2.20;;;27.50;46.50;;;;;;5039980;28;20128;-72
2023/06/13 10:35:50;;;;;;;;;;;27.50;46.90;;;;;;5008833;28;20075;-73
2023/06/13 10:38:53;;;;;;;3.20;1.73;;;27.50;46.70;;;;;;5027463;28;19909;-72
2023/06/13 10:41:57;;;;;;;5.18;1.90;;;27.50;47.80;;;;;;5031377;28;20490;-73
2023/06/13 10:44:42;;;;;;;3.25;2.00;;;27.70;46.90;;;;;;5013644;28;20075;-72
2023/06/13 10:47:08;;;;;;;8.82;2.22;;;27.80;48.00;;;;;;5025648;28;20034;-72
2023/06/13 10:49:38;;;;;;;6.65;2.03;;;27.90;46.70;;;;;;5031800;28;20116;-72
2023/06/13 10:52:09;;;;;;;3.88;2.63;;;27.80;46.00;;;;;;5029238;28;20109;-72
2023/06/13 10:54:34;;;;;;;5.32;2.25;;;27.60;45.80;;;;;;5031607;28;20026;-72
2023/06/13 10:57:01;;;;;;;4.72;2.20;;;27.60;46.60;;;;;;5028766;28;20068;-72
2023/06/13 10:59:37;;;;;;;2.70;1.88;;;27.70;46.20;;;;;;5031512;28;20033;-72
2023/06/13 11:02:04;;;;;;;3.53;2.10;;;27.70;46.10;;;;;;5029800;28;20119;-72
2023/06/13 11:04:30;;;;;;;6.22;2.10;;;27.60;45.90;;;;;;5031173;28;20021;-72
2023/06/13 11:07:21;;;;;;;3.53;2.50;;;27.60;46.10;;;;;;5029139;28;20029;-72
2023/06/13 11:10:11;;;;;;;5.78;2.00;;;27.70;45.90;;;;;;5024436;28;20546;-72
2023/06/13 11:12:37;;;;;;;4.25;2.47;;;27.70;45.50;;;;;;5018889;28;20453;-71
2023/06/13 11:15:04;;;;;;;5.10;2.33;;;27.80;45.90;;;;;;5029236;28;20083;-72
2023/06/13 11:17:30;;;;;;;3.30;1.80;;;27.90;46.10;;;;;;5031321;28;20018;-72
2023/06/13 11:19:56;;;;;;;4.35;2.00;;;28.00;45.40;;;;;;5031236;28;20049;-72
2023/06/13 11:22:23;;;;;;;4.85;2.00;;;27.90;44.50;;;;;;5030714;28;20023;-72
2023/06/13 11:24:50;;;;;;;5.65;2.63;;;27.90;44.30;;;;;;5030540;28;20060;-74
2023/06/13 11:27:17;;;;;;;4.72;2.45;;;27.90;44.40;;;;;;5011587;28;20156;-72
2023/06/13 11:29:43;;;;;;;5.13;1.90;;;28.00;44.90;;;;;;5024863;28;20481;-72
2023/06/13 11:32:11;;;;;;;4.68;2.20;;;28.10;46.10;;;;;;5028728;28;20033;-72
2023/06/13 11:34:41;;;;;;;3.63;2.22;;;28.20;44.90;;;;;;5030975;28;20029;-73
2023/06/13 11:37:25;;;;;;;5.72;2.17;;;28.20;44.70;;;;;;5030235;28;20013;-71
2023/06/13 11:39:56;;;;;;;3.28;2.25;;;28.10;44.00;;;;;;5031417;28;20492;-73
2023/06/13 11:42:23;;;;;;;3.88;2.38;;;28.00;43.80;;;;;;5030113;28;20052;-71
2023/06/13 11:44:49;;;;;;;4.32;2.22;;;28.00;43.90;;;;;;5031390;28;20115;-73
2023/06/13 11:47:15;;;;;;;2.92;1.77;;;28.00;43.60;;;;;;5030398;28;20061;-73
2023/06/13 11:49:52;;;;;;;2.75;2.17;;;27.90;43.60;;;;;;5031332;28;20033;-73
2023/06/13 11:52:18;;;;;;;5.20;2.47;;;28.00;43.80;;;;;;5010061;28;20034;-73
2023/06/13 11:54:47;;;;;;;3.13;2.05;;;28.00;44.00;;;;;;4999196;28;20033;-73
2023/06/13 11:57:14;;;;;;;11.43;3.03;;;28.00;44.30;;;;;;5028314;28;20104;-73
2023/06/13 11:59:40;;;;;;;5.45;2.40;;;28.20;44.50;;;;;;5022019;28;20033;-73
2023/06/13 12:02:06;;;;;;;5.43;2.42;;;28.20;44.50;;;;;;5028544;28;20060;-73
2023/06/13 13:41:32;;;;;;;3.58;2.47;;;28.90;42.70;;;;;;5124077;27;20455;-72
2023/06/13 13:44:01;;;;;;;5.53;2.25;;;29.50;43.20;;;;;;5104278;28;20119;-72
2023/06/13 13:46:27;;;;;;;4.38;2.33;;;29.50;43.70;;;;;;5102997;28;20392;-72
2023/06/13 13:48:53;;;;;;;5.22;2.63;;;29.60;43.50;;;;;;5104995;28;20028;-72
2023/06/13 13:51:23;;;;;;;3.90;2.47;;;29.70;42.80;;;;;;5091185;28;20036;-72
2023/06/13 13:53:49;;;;;;;4.93;2.65;;;29.90;43.00;;;;;;5108466;28;20020;-72
2023/06/13 13:56:15;;;;;;;3.63;2.50;;;30.00;43.50;;;;;;5108285;28;20034;-72
2023/06/13 13:58:40;;;;;;;6.57;3.22;;;30.10;43.80;;;;;;5106299;28;20059;-72
2023/06/13 14:01:06;;;;;;;3.95;2.47;;;30.20;42.40;;;;;;5106563;28;20059;-72
2023/06/13 14:03:32;;;;;;;6.53;3.05;;;30.10;42.10;;;;;;5107401;28;20028;-72
2023/06/13 14:05:57;;;;;;;4.22;2.53;;;29.80;42.30;;;;;;5095565;28;20032;-72
2023/06/13 14:08:23;;;;;;;5.13;2.72;;;29.80;42.50;;;;;;5103883;28;20030;-72
2023/06/13 14:10:48;;;;;;;4.40;2.80;;;29.80;42.80;;;;;;5103159;28;20408;-72
2023/06/13 14:13:14;;;;;;;4.22;2.72;;;29.70;42.50;;;;;;5107617;28;20028;-72
2023/06/13 14:15:40;;;;;;;5.38;2.80;;;29.60;42.50;;;;;;5093729;28;20031;-72
2023/06/13 14:18:05;;;;;;;4.60;2.10;;;29.60;42.50;;;;;;5101205;28;20496;-72
2023/06/13 14:20:31;;;;;;;4.30;2.58;;;29.70;42.70;;;;;;5094851;28;20353;-72
2023/06/13 14:22:57;;;;;;;5.28;2.30;;;29.90;42.50;;;;;;5102581;28;20028;-72
2023/06/13 14:25:23;;;;;;;3.70;2.72;;;30.00;42.20;;;;;;5098819;28;20047;-72
2023/06/13 14:27:49;;;;;;;3.25;1.98;;;30.20;42.00;;;;;;5094955;28;20027;-72